Latest Coastal Weather Observations for Port Kembla Harbour

IDN60701

Issued at 10:31 am EDT Wednesday 18 January 2017 (issued every 10 minutes, with the page automatically refreshed every 10 minutes)

About coastal observations | Map of coastal stations | Coastal observations for NSW | Marine services | Other Formats
Station Details ID: 068253 Name: PORT KEMBLA NTC AWS Lat: -34.47 Lon: 150.91 Height: 0.0 m
Data from the previous 72 hours. | See also: Recent months for locations in New South Wales
Date/Time
EDT
Temp
°C
Wind Pressure Rain since
9am
mm
Weather Cloud Vis
km
Sea
Height
m
Swell
Dir  Spd
kts
Gust
kts
hPa Trend Height
m
Period
s
Dir
18/09:00am 26.0 S 13 23 1005.5 - - - - - - - - -
18/08:30am 25.9 S 13 22 1005.4 - - - - - - - - -
18/08:00am 25.3 S 10 22 1005.4 - - - - - - - - -
18/07:48am 27.4 WSW 13 23 1004.9 - - - - - - - - -
18/07:30am 33.7 W 10 16 1003.7 - - - - - - - - -
18/07:00am 33.7 WNW 11 16 1003.1 - - - - - - - - -
18/06:30am 33.6 NW 15 21 1002.4 - - - - - - - - -
18/06:00am 33.4 NW 15 21 1001.8 - - - - - - - - -
18/05:30am 33.2 NW 18 24 1001.5 - - - - - - - - -
18/05:00am 32.5 NW 15 20 1001.5 - - - - - - - - -
18/04:30am 31.3 WSW 6 7 1001.6 - - - - - - - - -
18/04:00am 31.4 WSW 9 13 1001.7 - - - - - - - - -
18/03:30am 30.0 SW 1 3 1001.8 - - - - - - - - -
18/03:00am 26.5 SE 3 4 1002.3 - - - - - - - - -
18/02:30am 25.7 S 2 3 1002.6 - - - - - - - - -
18/02:00am 24.1 SE 2 3 1003.2 - - - - - - - - -
18/01:30am 24.1 SE 2 3 1003.6 - - - - - - - - -
18/01:00am 24.0 NE 2 3 1004.0 - - - - - - - - -
18/12:30am 24.1 N 1 3 1004.7 - - - - - - - - -
18/12:00am 25.0 NNE 5 8 1005.1 - - - - - - - - -
 
Date/Time
EDT
Temp
°C
Wind Pressure Rain since
9am
mm
Weather Cloud Vis
km
Sea
Height
m
Swell
Dir  Spd
kts
Gust
kts
hPa Trend Height
m
Period
s
Dir
17/11:30pm 25.0 N 6 9 1005.7 - - - - - - - - -
17/11:00pm 24.9 ESE 5 7 1006.1 - - - - - - - - -
17/10:30pm 25.7 W 2 3 1006.5 - - - - - - - - -
17/10:00pm 25.9 NE 1 2 1006.8 - - - - - - - - -
17/09:30pm 25.4 NNW 4 8 1007.3 - - - - - - - - -
17/09:00pm 23.8 N 4 8 1006.6 - - - - - - - - -
17/08:30pm 24.1 NE 7 9 1007.0 - - - - - - - - -
17/08:00pm 24.6 NNE 7 13 1007.3 - - - - - - - - -
17/07:30pm 25.5 ENE 7 13 1006.8 - - - - - - - - -
17/07:00pm 24.6 NNE 15 21 1006.1 - - - - - - - - -
17/06:30pm 24.1 NNE 8 11 1006.2 - - - - - - - - -
17/06:00pm 25.2 N 5 12 1006.1 - - - - - - - - -
17/05:30pm 24.4 NNE 7 10 1006.2 - - - - - - - - -
17/05:00pm 24.4 NNE 4 8 1006.3 - - - - - - - - -
17/04:30pm 24.1 NNE 5 8 1006.5 - - - - - - - - -
17/04:00pm 24.4 NNE 5 8 1006.8 - - - - - - - - -
17/03:30pm 24.1 NNE 4 7 1007.1 - - - - - - - - -
17/03:00pm 24.2 NNE 6 10 1007.5 - - - - - - - - -
17/02:30pm 23.8 NNE 8 11 1007.8 - - - - - - - - -
17/02:00pm 24.2 N 8 13 1008.4 - - - - - - - - -
17/01:30pm 23.9 NE 10 16 1008.4 - - - - - - - - -
17/01:00pm 23.8 NNE 9 14 1008.7 - - - - - - - - -
17/12:30pm 23.6 NE 8 13 1009.2 - - - - - - - - -
17/12:00pm 23.1 NE 10 14 1009.8 - - - - - - - - -
17/11:30am 22.8 NE 12 16 1010.1 - - - - - - - - -
17/11:00am 22.9 NE 10 12 1010.5 - - - - - - - - -
17/10:30am 22.8 NE 10 13 1011.1 - - - - - - - - -
17/10:00am 22.8 NE 9 13 1011.4 - - - - - - - - -
17/09:30am 22.9 NE 7 11 1011.8 - - - - - - - - -
17/09:00am 22.6 NE 8 11 1012.0 - - - - - - - - -
17/08:30am 22.2 NE 8 11 1012.3 - - - - - - - - -
17/08:00am 22.6 NNE 7 10 1012.4 - - - - - - - - -
17/07:30am 22.0 NNE 5 7 1012.6 - - - - - - - - -
17/07:00am 21.8 NNE 6 8 1012.4 - - - - - - - - -
17/06:30am 21.6 NNE 8 11 1012.3 - - - - - - - - -
17/06:00am 21.5 NNE 6 8 1012.1 - - - - - - - - -
17/05:30am 21.4 NNE 6 8 1012.0 - - - - - - - - -
17/05:00am 21.6 NNE 6 9 1011.9 - - - - - - - - -
17/04:30am 21.5 NNE 5 8 1011.9 - - - - - - - - -
17/04:00am 21.6 NNE 5 7 1012.2 - - - - - - - - -
17/03:30am 21.8 NNE 5 7 1012.2 - - - - - - - - -
17/03:00am 21.9 NNE 4 5 1012.5 - - - - - - - - -
17/02:30am 22.1 NNE 5 7 1012.9 - - - - - - - - -
17/02:00am 22.0 NNE 5 7 1013.2 - - - - - - - - -
17/01:30am 22.2 NNE 5 7 1013.5 - - - - - - - - -
17/01:00am 22.3 NNE 7 9 1013.9 - - - - - - - - -
17/12:30am 22.3 NNE 6 9 1014.0 - - - - - - - - -
17/12:00am 22.4 NNE 6 8 1014.3 - - - - - - - - -
 
Date/Time
EDT
Temp
°C
Wind Pressure Rain since
9am
mm
Weather Cloud Vis
km
Sea
Height
m
Swell
Dir  Spd
kts
Gust
kts
hPa Trend Height
m
Period
s
Dir
16/11:30pm 22.5 NNE 6 8 1014.4 - - - - - - - - -
16/11:00pm 22.6 NNE 5 8 1014.5 - - - - - - - - -
16/10:30pm 22.4 NNE 6 7 1014.6 - - - - - - - - -
16/10:00pm 22.3 NNE 7 9 1014.4 - - - - - - - - -
16/09:30pm 22.6 NNE 11 13 1014.3 - - - - - - - - -
16/09:00pm 22.9 NE 13 18 1014.2 - - - - - - - - -
16/08:30pm 22.9 NE 14 18 1013.9 - - - - - - - - -
16/08:00pm 23.0 NE 17 23 1013.7 - - - - - - - - -
16/07:30pm 23.1 NE 18 24 1013.3 - - - - - - - - -
16/07:00pm 23.2 NE 17 26 1013.1 - - - - - - - - -
16/06:30pm 23.3 NE 17 24 1012.8 - - - - - - - - -
16/06:00pm 23.3 NE 16 22 1012.5 - - - - - - - - -
16/05:30pm 23.3 NE 16 21 1012.4 - - - - - - - - -
16/05:00pm 23.3 NE 16 23 1012.2 - - - - - - - - -
16/04:30pm 23.3 NE 17 22 1012.3 - - - - - - - - -
16/04:00pm 23.3 NE 17 21 1012.6 - - - - - - - - -
16/03:30pm 23.3 NE 16 23 1012.9 - - - - - - - - -
16/03:00pm 23.3 NE 16 22 1013.0 - - - - - - - - -
16/02:30pm 23.3 NE 17 23 1013.3 - - - - - - - - -
16/02:00pm 23.3 NE 17 22 1013.5 - - - - - - - - -
16/01:30pm 23.3 NE 16 22 1013.8 - - - - - - - - -
16/01:00pm 23.2 NE 16 22 1014.0 - - - - - - - - -
16/12:30pm 23.1 NE 16 23 1014.3 - - - - - - - - -
16/12:00pm 23.0 NE 15 21 1014.6 - - - - - - - - -
16/11:30am 22.9 NE 13 18 1014.8 - - - - - - - - -
16/11:00am 22.9 NE 9 15 1015.2 - - - - - - - - -
16/10:30am 22.7 NE 8 11 1015.6 - - - - - - - - -
16/10:00am 23.1 NE 9 12 1015.9 - - - - - - - - -
16/09:30am 23.6 N 9 13 1016.0 - - - - - - - - -
16/09:00am 23.8 N 5 10 1016.2 - - - - - - - - -
16/08:30am 22.9 NNE 8 13 1016.3 - - - - - - - - -
16/08:00am 22.6 NNE 9 11 1016.1 - - - - - - - - -
16/07:30am 22.6 NNE 5 10 1015.8 - - - - - - - - -
16/07:00am 22.4 N 8 13 1015.8 - - - - - - - - -
16/06:30am 22.2 N 7 9 1015.6 - - - - - - - - -
16/06:00am 21.9 NNE 5 9 1015.5 - - - - - - - - -
16/05:30am 21.1 NE 3 6 1015.4 - - - - - - - - -
16/05:00am 20.9 E 1 2 1015.2 - - - - - - - - -
16/04:30am 20.7 ESE 1 2 1015.2 - - - - - - - - -
16/04:00am 20.6 SE 1 2 1015.2 - - - - - - - - -
16/03:30am 20.6 ENE 1 2 1015.3 - - - - - - - - -
16/03:00am 20.3 CALM 0 1 1015.6 - - - - - - - - -
16/02:30am 20.3 S 1 2 1015.9 - - - - - - - - -
16/02:00am 20.4 S 1 2 1016.3 - - - - - - - - -
16/01:30am 20.2 SSW 3 5 1016.6 - - - - - - - - -
16/01:00am 20.4 SW 4 6 1016.7 - - - - - - - - -
16/12:30am 20.2 SW 5 7 1016.8 - - - - - - - - -
16/12:00am 20.2 SSW 2 4 1016.7 - - - - - - - - -
 
Date/Time
EDT
Temp
°C
Wind Pressure Rain since
9am
mm
Weather Cloud Vis
km
Sea
Height
m
Swell
Dir  Spd
kts
Gust
kts
hPa Trend Height
m
Period
s
Dir
15/11:30pm 20.3 SW 4 6 1016.6 - - - - - - - - -
15/11:00pm 20.4 W 5 6 1016.6 - - - - - - - - -
15/10:30pm 20.2 WSW 4 6 1016.6 - - - - - - - - -
15/10:00pm 20.0 WSW 5 7 1016.6 - - - - - - - - -

Other Formats:

Comma delimited format used in spreadsheet applications
http://www.bom.gov.au/fwo/IDN60701/IDN60701.95745.axf

JavaScript Object Notation format (JSON) in row-major order
http://www.bom.gov.au/fwo/IDN60701/IDN60701.95745.json